TAF Text Data
IDs:
Format:
Raw Decoded Include METAR

Data at: 0737 UTC 23 Oct 2018

KINW 230656Z AUTO 28003KT 10SM FEW046 SCT070 11/08 A3010 RMK AO2 SLP142 T01110083 402500089

KINW 230521Z 2306/2406 VRB04KT P6SM SCT070
  FM231600 11008KT P6SM SCT040 BKN070
  TEMPO 2318/2322 VRB10G20KT 5SM TSRA BKN035CB